Terminal Aerodrome Forecast
Issued by NWS

Home | Current Version | Previous Version | Text Only | Print | Product List | Glossary On
Versions: 1 2 3 4 5 6 7 8 9 10 11 12 13 14 15 16 17 18 19 20 21 22 23
000
FTUS44 KBMX 312300
TAFMGM
TAF
KMGM 312329Z 0100/0124 34010G18KT P6SM SCT070
     FM010100 32015KT P6SM SCT070
     FM011500 31019G30KT P6SM SKC=

USA.gov is the U.S. government's official web portal to all federal, state and local government web resources and services.